sensor_id;sensor_type;location;lat;lon;timestamp;P1;durP1;ratioP1;P2;durP2;ratioP2
78903;SDS011;68291;49.602;8.722;2023-07-13T00:00:42;6.63;;;1.80;;
78903;SDS011;68291;49.602;8.722;2023-07-13T00:03:37;1.87;;;1.40;;
78903;SDS011;68291;49.602;8.722;2023-07-13T00:06:08;2.50;;;1.57;;
78903;SDS011;68291;49.602;8.722;2023-07-13T00:08:58;1.73;;;1.40;;
78903;SDS011;68291;49.602;8.722;2023-07-13T00:11:42;2.83;;;1.50;;
78903;SDS011;68291;49.602;8.722;2023-07-13T00:14:32;4.23;;;1.60;;
78903;SDS011;68291;49.602;8.722;2023-07-13T00:17:13;7.00;;;1.70;;
78903;SDS011;68291;49.602;8.722;2023-07-13T00:20:05;2.20;;;1.47;;
78903;SDS011;68291;49.602;8.722;2023-07-13T00:22:48;2.07;;;1.50;;
78903;SDS011;68291;49.602;8.722;2023-07-13T00:25:24;3.60;;;1.47;;
78903;SDS011;68291;49.602;8.722;2023-07-13T00:28:18;2.77;;;1.80;;
78903;SDS011;68291;49.602;8.722;2023-07-13T00:30:58;4.23;;;1.67;;
78903;SDS011;68291;49.602;8.722;2023-07-13T00:33:48;2.97;;;1.80;;
78903;SDS011;68291;49.602;8.722;2023-07-13T00:36:32;3.07;;;1.60;;
78903;SDS011;68291;49.602;8.722;2023-07-13T00:39:17;2.00;;;1.50;;
78903;SDS011;68291;49.602;8.722;2023-07-13T00:42:11;3.43;;;1.50;;
78903;SDS011;68291;49.602;8.722;2023-07-13T00:48:06;3.07;;;1.63;;
78903;SDS011;68291;49.602;8.722;2023-07-13T00:50:57;2.97;;;1.60;;
78903;SDS011;68291;49.602;8.722;2023-07-13T00:53:40;3.50;;;1.57;;
78903;SDS011;68291;49.602;8.722;2023-07-13T00:56:30;2.63;;;1.87;;
78903;SDS011;68291;49.602;8.722;2023-07-13T00:59:12;1.73;;;1.50;;
78903;SDS011;68291;49.602;8.722;2023-07-13T01:01:47;2.43;;;1.67;;
78903;SDS011;68291;49.602;8.722;2023-07-13T01:04:34;2.23;;;1.80;;
78903;SDS011;68291;49.602;8.722;2023-07-13T01:07:19;2.63;;;1.50;;
78903;SDS011;68291;49.602;8.722;2023-07-13T01:09:59;6.37;;;1.50;;
78903;SDS011;68291;49.602;8.722;2023-07-13T01:12:55;2.33;;;1.80;;
78903;SDS011;68291;49.602;8.722;2023-07-13T01:18:59;2.80;;;1.60;;
78903;SDS011;68291;49.602;8.722;2023-07-13T01:21:52;3.13;;;1.60;;
78903;SDS011;68291;49.602;8.722;2023-07-13T01:24:24;3.00;;;1.70;;
78903;SDS011;68291;49.602;8.722;2023-07-13T01:27:14;2.50;;;1.70;;
78903;SDS011;68291;49.602;8.722;2023-07-13T01:30:29;2.50;;;1.60;;
78903;SDS011;68291;49.602;8.722;2023-07-13T01:33:32;3.40;;;1.83;;
78903;SDS011;68291;49.602;8.722;2023-07-13T01:36:22;3.43;;;1.80;;
78903;SDS011;68291;49.602;8.722;2023-07-13T01:39:03;4.03;;;1.90;;
78903;SDS011;68291;49.602;8.722;2023-07-13T01:41:52;2.63;;;1.70;;
78903;SDS011;68291;49.602;8.722;2023-07-13T01:44:48;3.23;;;1.60;;
78903;SDS011;68291;49.602;8.722;2023-07-13T01:47:20;2.93;;;1.80;;
78903;SDS011;68291;49.602;8.722;2023-07-13T01:50:16;5.57;;;2.00;;
78903;SDS011;68291;49.602;8.722;2023-07-13T01:52:47;2.60;;;2.03;;
78903;SDS011;68291;49.602;8.722;2023-07-13T01:55:23;2.70;;;1.83;;
78903;SDS011;68291;49.602;8.722;2023-07-13T01:58:08;4.10;;;1.80;;
78903;SDS011;68291;49.602;8.722;2023-07-13T02:00:54;2.30;;;1.80;;
78903;SDS011;68291;49.602;8.722;2023-07-13T02:03:25;2.77;;;1.70;;
78903;SDS011;68291;49.602;8.722;2023-07-13T02:06:12;3.40;;;2.00;;
78903;SDS011;68291;49.602;8.722;2023-07-13T02:08:49;2.87;;;2.07;;
78903;SDS011;68291;49.602;8.722;2023-07-13T02:11:49;4.77;;;2.20;;
78903;SDS011;68291;49.602;8.722;2023-07-13T02:14:20;2.40;;;1.80;;
78903;SDS011;68291;49.602;8.722;2023-07-13T02:17:16;2.63;;;2.07;;
78903;SDS011;68291;49.602;8.722;2023-07-13T02:20:03;2.60;;;2.00;;
78903;SDS011;68291;49.602;8.722;2023-07-13T02:22:51;6.73;;;2.20;;
78903;SDS011;68291;49.602;8.722;2023-07-13T02:25:29;4.27;;;2.10;;
78903;SDS011;68291;49.602;8.722;2023-07-13T02:28:09;3.17;;;2.07;;
78903;SDS011;68291;49.602;8.722;2023-07-13T02:30:53;2.23;;;1.97;;
78903;SDS011;68291;49.602;8.722;2023-07-13T02:33:27;3.43;;;1.90;;
78903;SDS011;68291;49.602;8.722;2023-07-13T02:36:22;2.77;;;1.80;;
78903;SDS011;68291;49.602;8.722;2023-07-13T02:39:15;2.17;;;1.87;;
78903;SDS011;68291;49.602;8.722;2023-07-13T02:42:06;3.50;;;1.80;;
78903;SDS011;68291;49.602;8.722;2023-07-13T02:44:56;2.97;;;1.63;;
78903;SDS011;68291;49.602;8.722;2023-07-13T02:47:32;5.73;;;2.00;;
78903;SDS011;68291;49.602;8.722;2023-07-13T02:50:02;3.40;;;1.90;;
78903;SDS011;68291;49.602;8.722;2023-07-13T02:52:38;2.43;;;1.77;;
78903;SDS011;68291;49.602;8.722;2023-07-13T02:55:15;2.73;;;1.80;;
78903;SDS011;68291;49.602;8.722;2023-07-13T02:58:00;3.30;;;1.87;;
78903;SDS011;68291;49.602;8.722;2023-07-13T03:00:48;2.50;;;1.80;;
78903;SDS011;68291;49.602;8.722;2023-07-13T03:03:32;3.00;;;2.00;;
78903;SDS011;68291;49.602;8.722;2023-07-13T03:06:13;3.27;;;2.20;;
78903;SDS011;68291;49.602;8.722;2023-07-13T03:08:53;2.67;;;2.23;;
78903;SDS011;68291;49.602;8.722;2023-07-13T03:11:39;2.30;;;2.10;;
78903;SDS011;68291;49.602;8.722;2023-07-13T03:14:24;2.93;;;2.00;;
78903;SDS011;68291;49.602;8.722;2023-07-13T03:17:09;2.63;;;2.10;;
78903;SDS011;68291;49.602;8.722;2023-07-13T03:19:42;2.77;;;2.13;;
78903;SDS011;68291;49.602;8.722;2023-07-13T03:22:40;3.93;;;2.33;;
78903;SDS011;68291;49.602;8.722;2023-07-13T03:25:30;2.40;;;1.77;;
78903;SDS011;68291;49.602;8.722;2023-07-13T03:28:11;2.70;;;2.17;;
78903;SDS011;68291;49.602;8.722;2023-07-13T03:30:43;2.27;;;2.00;;
78903;SDS011;68291;49.602;8.722;2023-07-13T03:33:28;2.40;;;2.20;;
78903;SDS011;68291;49.602;8.722;2023-07-13T03:36:01;2.90;;;1.80;;
78903;SDS011;68291;49.602;8.722;2023-07-13T03:38:55;3.37;;;2.20;;
78903;SDS011;68291;49.602;8.722;2023-07-13T03:41:53;3.00;;;2.20;;
78903;SDS011;68291;49.602;8.722;2023-07-13T03:44:36;7.20;;;2.30;;
78903;SDS011;68291;49.602;8.722;2023-07-13T03:47:24;3.50;;;2.50;;
78903;SDS011;68291;49.602;8.722;2023-07-13T03:53:18;5.40;;;2.20;;
78903;SDS011;68291;49.602;8.722;2023-07-13T03:55:58;4.40;;;2.30;;
78903;SDS011;68291;49.602;8.722;2023-07-13T03:58:39;3.43;;;2.10;;
78903;SDS011;68291;49.602;8.722;2023-07-13T04:01:28;3.90;;;2.30;;
78903;SDS011;68291;49.602;8.722;2023-07-13T04:04:08;5.17;;;2.50;;
78903;SDS011;68291;49.602;8.722;2023-07-13T04:09:50;3.27;;;2.27;;
78903;SDS011;68291;49.602;8.722;2023-07-13T04:12:33;2.33;;;2.13;;
78903;SDS011;68291;49.602;8.722;2023-07-13T04:15:23;2.37;;;2.10;;
78903;SDS011;68291;49.602;8.722;2023-07-13T04:18:09;4.37;;;2.30;;
78903;SDS011;68291;49.602;8.722;2023-07-13T04:20:58;3.87;;;2.07;;
78903;SDS011;68291;49.602;8.722;2023-07-13T04:23:49;2.40;;;2.20;;
78903;SDS011;68291;49.602;8.722;2023-07-13T04:26:28;4.07;;;2.37;;
78903;SDS011;68291;49.602;8.722;2023-07-13T04:29:16;3.20;;;2.10;;
78903;SDS011;68291;49.602;8.722;2023-07-13T04:31:58;3.13;;;2.17;;
78903;SDS011;68291;49.602;8.722;2023-07-13T04:34:46;6.07;;;2.43;;
78903;SDS011;68291;49.602;8.722;2023-07-13T04:37:38;5.33;;;2.20;;
78903;SDS011;68291;49.602;8.722;2023-07-13T04:43:13;3.50;;;2.40;;
78903;SDS011;68291;49.602;8.722;2023-07-13T04:46:03;3.93;;;2.10;;
78903;SDS011;68291;49.602;8.722;2023-07-13T04:48:54;3.70;;;2.30;;
78903;SDS011;68291;49.602;8.722;2023-07-13T04:51:50;5.67;;;2.20;;
78903;SDS011;68291;49.602;8.722;2023-07-13T04:54:37;3.17;;;2.20;;
78903;SDS011;68291;49.602;8.722;2023-07-13T04:57:24;3.13;;;2.27;;
78903;SDS011;68291;49.602;8.722;2023-07-13T05:00:28;2.60;;;2.33;;
78903;SDS011;68291;49.602;8.722;2023-07-13T05:03:08;3.67;;;2.40;;
78903;SDS011;68291;49.602;8.722;2023-07-13T05:06:02;3.00;;;2.50;;
78903;SDS011;68291;49.602;8.722;2023-07-13T05:08:51;3.40;;;2.60;;
78903;SDS011;68291;49.602;8.722;2023-07-13T05:11:37;5.80;;;2.20;;
78903;SDS011;68291;49.602;8.722;2023-07-13T05:14:10;4.00;;;2.10;;
78903;SDS011;68291;49.602;8.722;2023-07-13T05:16:51;3.07;;;2.40;;
78903;SDS011;68291;49.602;8.722;2023-07-13T05:19:42;4.47;;;2.50;;
78903;SDS011;68291;49.602;8.722;2023-07-13T05:22:15;3.37;;;2.37;;
78903;SDS011;68291;49.602;8.722;2023-07-13T05:24:52;4.77;;;2.20;;
78903;SDS011;68291;49.602;8.722;2023-07-13T05:27:44;2.53;;;2.20;;
78903;SDS011;68291;49.602;8.722;2023-07-13T05:30:35;3.13;;;2.30;;
78903;SDS011;68291;49.602;8.722;2023-07-13T05:33:10;4.23;;;2.40;;
78903;SDS011;68291;49.602;8.722;2023-07-13T05:35:41;2.83;;;2.30;;
78903;SDS011;68291;49.602;8.722;2023-07-13T05:38:35;3.23;;;2.20;;
78903;SDS011;68291;49.602;8.722;2023-07-13T05:41:25;3.30;;;2.33;;
78903;SDS011;68291;49.602;8.722;2023-07-13T05:44:05;3.60;;;2.10;;
78903;SDS011;68291;49.602;8.722;2023-07-13T05:49:41;3.90;;;2.40;;
78903;SDS011;68291;49.602;8.722;2023-07-13T05:52:23;2.83;;;2.00;;
78903;SDS011;68291;49.602;8.722;2023-07-13T05:55:06;3.13;;;2.37;;
78903;SDS011;68291;49.602;8.722;2023-07-13T05:57:47;4.03;;;2.13;;
78903;SDS011;68291;49.602;8.722;2023-07-13T06:00:28;3.03;;;2.10;;
78903;SDS011;68291;49.602;8.722;2023-07-13T06:03:14;3.93;;;2.10;;
78903;SDS011;68291;49.602;8.722;2023-07-13T06:05:52;2.77;;;2.00;;
78903;SDS011;68291;49.602;8.722;2023-07-13T06:08:32;3.13;;;2.23;;
78903;SDS011;68291;49.602;8.722;2023-07-13T06:11:09;2.83;;;2.20;;
78903;SDS011;68291;49.602;8.722;2023-07-13T06:13:50;3.27;;;2.40;;
78903;SDS011;68291;49.602;8.722;2023-07-13T06:16:29;3.70;;;2.10;;
78903;SDS011;68291;49.602;8.722;2023-07-13T06:19:16;4.63;;;2.23;;
78903;SDS011;68291;49.602;8.722;2023-07-13T06:21:51;4.30;;;2.50;;
78903;SDS011;68291;49.602;8.722;2023-07-13T06:24:24;4.10;;;2.23;;
78903;SDS011;68291;49.602;8.722;2023-07-13T06:27:01;3.70;;;2.17;;
78903;SDS011;68291;49.602;8.722;2023-07-13T06:29:38;2.70;;;2.10;;
78903;SDS011;68291;49.602;8.722;2023-07-13T06:32:24;4.97;;;2.10;;
78903;SDS011;68291;49.602;8.722;2023-07-13T06:35:10;4.00;;;2.03;;
78903;SDS011;68291;49.602;8.722;2023-07-13T06:37:52;3.30;;;2.00;;
78903;SDS011;68291;49.602;8.722;2023-07-13T06:40:35;3.57;;;1.87;;
78903;SDS011;68291;49.602;8.722;2023-07-13T06:43:31;4.13;;;1.80;;
78903;SDS011;68291;49.602;8.722;2023-07-13T06:46:20;2.47;;;1.80;;
78903;SDS011;68291;49.602;8.722;2023-07-13T06:49:03;2.60;;;1.60;;
78903;SDS011;68291;49.602;8.722;2023-07-13T06:51:42;2.47;;;1.93;;
78903;SDS011;68291;49.602;8.722;2023-07-13T06:54:25;5.23;;;2.07;;
78903;SDS011;68291;49.602;8.722;2023-07-13T06:57:15;3.07;;;1.70;;
78903;SDS011;68291;49.602;8.722;2023-07-13T06:59:47;2.90;;;1.60;;
78903;SDS011;68291;49.602;8.722;2023-07-13T07:02:37;3.30;;;1.57;;
78903;SDS011;68291;49.602;8.722;2023-07-13T07:05:08;2.13;;;1.50;;
78903;SDS011;68291;49.602;8.722;2023-07-13T07:07:52;2.47;;;1.33;;
78903;SDS011;68291;49.602;8.722;2023-07-13T07:10:32;3.47;;;1.60;;
78903;SDS011;68291;49.602;8.722;2023-07-13T07:13:21;2.77;;;1.40;;
78903;SDS011;68291;49.602;8.722;2023-07-13T07:16:09;2.17;;;1.50;;
78903;SDS011;68291;49.602;8.722;2023-07-13T07:18:47;6.13;;;1.60;;
78903;SDS011;68291;49.602;8.722;2023-07-13T07:21:34;1.60;;;1.20;;
78903;SDS011;68291;49.602;8.722;2023-07-13T07:27:36;3.27;;;1.60;;
78903;SDS011;68291;49.602;8.722;2023-07-13T07:30:25;2.83;;;1.47;;
78903;SDS011;68291;49.602;8.722;2023-07-13T07:33:10;3.07;;;1.60;;
78903;SDS011;68291;49.602;8.722;2023-07-13T07:36:06;3.00;;;1.53;;
78903;SDS011;68291;49.602;8.722;2023-07-13T07:38:41;1.97;;;1.40;;
78903;SDS011;68291;49.602;8.722;2023-07-13T07:44:38;3.80;;;1.80;;
78903;SDS011;68291;49.602;8.722;2023-07-13T07:47:33;3.53;;;1.87;;
78903;SDS011;68291;49.602;8.722;2023-07-13T07:50:06;2.57;;;1.67;;
78903;SDS011;68291;49.602;8.722;2023-07-13T07:52:46;3.60;;;1.73;;
78903;SDS011;68291;49.602;8.722;2023-07-13T07:55:17;2.77;;;1.87;;
78903;SDS011;68291;49.602;8.722;2023-07-13T07:57:53;3.47;;;1.83;;
78903;SDS011;68291;49.602;8.722;2023-07-13T08:00:41;3.73;;;1.50;;
78903;SDS011;68291;49.602;8.722;2023-07-13T08:03:35;4.80;;;2.00;;
78903;SDS011;68291;49.602;8.722;2023-07-13T08:06:13;3.97;;;1.90;;
78903;SDS011;68291;49.602;8.722;2023-07-13T08:08:52;3.43;;;1.70;;
78903;SDS011;68291;49.602;8.722;2023-07-13T08:11:33;4.20;;;1.83;;
78903;SDS011;68291;49.602;8.722;2023-07-13T08:14:20;6.07;;;2.00;;
78903;SDS011;68291;49.602;8.722;2023-07-13T08:17:17;4.13;;;1.50;;
78903;SDS011;68291;49.602;8.722;2023-07-13T08:19:50;5.57;;;1.90;;
78903;SDS011;68291;49.602;8.722;2023-07-13T08:22:45;4.70;;;1.90;;
78903;SDS011;68291;49.602;8.722;2023-07-13T08:25:29;3.77;;;1.60;;
78903;SDS011;68291;49.602;8.722;2023-07-13T08:28:15;5.20;;;1.60;;
78903;SDS011;68291;49.602;8.722;2023-07-13T08:31:08;7.23;;;1.80;;
78903;SDS011;68291;49.602;8.722;2023-07-13T08:33:57;6.23;;;2.23;;
78903;SDS011;68291;49.602;8.722;2023-07-13T08:36:44;3.13;;;1.80;;
78903;SDS011;68291;49.602;8.722;2023-07-13T08:39:14;4.33;;;1.67;;
78903;SDS011;68291;49.602;8.722;2023-07-13T08:41:47;1.90;;;1.70;;
78903;SDS011;68291;49.602;8.722;2023-07-13T08:44:37;4.00;;;2.03;;
78903;SDS011;68291;49.602;8.722;2023-07-13T08:48:02;4.77;;;1.63;;
78903;SDS011;68291;49.602;8.722;2023-07-13T08:50:47;4.00;;;1.90;;
78903;SDS011;68291;49.602;8.722;2023-07-13T08:53:56;4.93;;;1.93;;
78903;SDS011;68291;49.602;8.722;2023-07-13T08:56:43;6.17;;;1.90;;
78903;SDS011;68291;49.602;8.722;2023-07-13T08:59:25;3.63;;;1.80;;
78903;SDS011;68291;49.602;8.722;2023-07-13T09:02:16;3.40;;;1.50;;
78903;SDS011;68291;49.602;8.722;2023-07-13T09:05:15;5.03;;;1.53;;
78903;SDS011;68291;49.602;8.722;2023-07-13T09:08:07;5.27;;;1.93;;
78903;SDS011;68291;49.602;8.722;2023-07-13T09:11:22;4.10;;;2.00;;
78903;SDS011;68291;49.602;8.722;2023-07-13T09:14:35;3.60;;;1.80;;
78903;SDS011;68291;49.602;8.722;2023-07-13T09:17:17;5.10;;;2.10;;
78903;SDS011;68291;49.602;8.722;2023-07-13T09:19:56;4.07;;;1.90;;
78903;SDS011;68291;49.602;8.722;2023-07-13T09:22:38;3.37;;;1.90;;
78903;SDS011;68291;49.602;8.722;2023-07-13T09:25:21;4.37;;;1.97;;
78903;SDS011;68291;49.602;8.722;2023-07-13T09:28:35;2.67;;;1.60;;
78903;SDS011;68291;49.602;8.722;2023-07-13T09:31:42;3.57;;;1.67;;
78903;SDS011;68291;49.602;8.722;2023-07-13T09:34:21;5.77;;;1.93;;
78903;SDS011;68291;49.602;8.722;2023-07-13T09:37:18;5.07;;;1.97;;
78903;SDS011;68291;49.602;8.722;2023-07-13T09:40:17;2.80;;;1.57;;
78903;SDS011;68291;49.602;8.722;2023-07-13T09:43:01;2.23;;;1.50;;
78903;SDS011;68291;49.602;8.722;2023-07-13T09:45:36;3.23;;;1.60;;
78903;SDS011;68291;49.602;8.722;2023-07-13T09:48:32;3.93;;;1.50;;
78903;SDS011;68291;49.602;8.722;2023-07-13T09:51:13;2.90;;;1.50;;
78903;SDS011;68291;49.602;8.722;2023-07-13T09:53:58;2.97;;;1.40;;
78903;SDS011;68291;49.602;8.722;2023-07-13T09:56:48;4.03;;;1.53;;
78903;SDS011;68291;49.602;8.722;2023-07-13T09:59:55;2.63;;;1.40;;
78903;SDS011;68291;49.602;8.722;2023-07-13T10:02:49;4.47;;;1.40;;
78903;SDS011;68291;49.602;8.722;2023-07-13T10:05:44;3.63;;;1.70;;
78903;SDS011;68291;49.602;8.722;2023-07-13T10:08:38;3.53;;;1.60;;
78903;SDS011;68291;49.602;8.722;2023-07-13T10:11:21;3.90;;;1.60;;
78903;SDS011;68291;49.602;8.722;2023-07-13T10:13:57;3.27;;;1.67;;
78903;SDS011;68291;49.602;8.722;2023-07-13T10:16:52;2.33;;;1.30;;
78903;SDS011;68291;49.602;8.722;2023-07-13T10:19:46;1.33;;;1.20;;
78903;SDS011;68291;49.602;8.722;2023-07-13T10:22:23;3.17;;;1.70;;
78903;SDS011;68291;49.602;8.722;2023-07-13T10:25:14;1.53;;;1.10;;
78903;SDS011;68291;49.602;8.722;2023-07-13T10:28:00;2.50;;;1.30;;
78903;SDS011;68291;49.602;8.722;2023-07-13T10:31:01;3.20;;;1.60;;
78903;SDS011;68291;49.602;8.722;2023-07-13T10:33:58;3.93;;;1.57;;
78903;SDS011;68291;49.602;8.722;2023-07-13T10:36:54;2.37;;;1.43;;
78903;SDS011;68291;49.602;8.722;2023-07-13T10:39:37;2.53;;;1.50;;
78903;SDS011;68291;49.602;8.722;2023-07-13T10:42:29;1.77;;;1.17;;
78903;SDS011;68291;49.602;8.722;2023-07-13T10:45:13;1.63;;;1.43;;
78903;SDS011;68291;49.602;8.722;2023-07-13T10:48:04;2.47;;;1.50;;
78903;SDS011;68291;49.602;8.722;2023-07-13T10:50:46;3.40;;;1.50;;
78903;SDS011;68291;49.602;8.722;2023-07-13T10:53:32;2.27;;;1.40;;
78903;SDS011;68291;49.602;8.722;2023-07-13T10:56:18;2.20;;;1.33;;
78903;SDS011;68291;49.602;8.722;2023-07-13T10:59:02;2.90;;;1.50;;
78903;SDS011;68291;49.602;8.722;2023-07-13T11:01:58;2.23;;;1.20;;
78903;SDS011;68291;49.602;8.722;2023-07-13T11:04:47;2.00;;;1.30;;
78903;SDS011;68291;49.602;8.722;2023-07-13T11:07:21;3.43;;;1.80;;
78903;SDS011;68291;49.602;8.722;2023-07-13T11:10:05;4.40;;;1.50;;
78903;SDS011;68291;49.602;8.722;2023-07-13T11:13:58;3.07;;;1.40;;
78903;SDS011;68291;49.602;8.722;2023-07-13T11:16:47;3.57;;;1.50;;
78903;SDS011;68291;49.602;8.722;2023-07-13T11:19:44;2.50;;;1.37;;
78903;SDS011;68291;49.602;8.722;2023-07-13T11:22:25;2.80;;;1.20;;
78903;SDS011;68291;49.602;8.722;2023-07-13T11:25:28;2.83;;;1.60;;
78903;SDS011;68291;49.602;8.722;2023-07-13T11:28:21;6.83;;;1.80;;
78903;SDS011;68291;49.602;8.722;2023-07-13T11:31:03;2.97;;;1.47;;
78903;SDS011;68291;49.602;8.722;2023-07-13T11:33:59;2.30;;;1.50;;
78903;SDS011;68291;49.602;8.722;2023-07-13T11:39:52;3.90;;;1.50;;
78903;SDS011;68291;49.602;8.722;2023-07-13T11:42:44;3.07;;;1.87;;
78903;SDS011;68291;49.602;8.722;2023-07-13T11:45:20;4.20;;;1.50;;
78903;SDS011;68291;49.602;8.722;2023-07-13T11:48:19;2.67;;;1.60;;
78903;SDS011;68291;49.602;8.722;2023-07-13T11:51:11;1.77;;;1.30;;
78903;SDS011;68291;49.602;8.722;2023-07-13T11:54:03;5.30;;;1.60;;
78903;SDS011;68291;49.602;8.722;2023-07-13T11:56:47;3.97;;;1.50;;
78903;SDS011;68291;49.602;8.722;2023-07-13T11:59:32;2.90;;;1.50;;
78903;SDS011;68291;49.602;8.722;2023-07-13T12:02:29;5.00;;;1.77;;
78903;SDS011;68291;49.602;8.722;2023-07-13T12:05:27;4.40;;;1.70;;
78903;SDS011;68291;49.602;8.722;2023-07-13T12:08:09;2.30;;;1.50;;
78903;SDS011;68291;49.602;8.722;2023-07-13T12:11:05;2.23;;;1.37;;
78903;SDS011;68291;49.602;8.722;2023-07-13T12:14:04;3.63;;;1.93;;
78903;SDS011;68291;49.602;8.722;2023-07-13T12:16:59;2.57;;;1.57;;
78903;SDS011;68291;49.602;8.722;2023-07-13T12:19:37;3.10;;;1.50;;
78903;SDS011;68291;49.602;8.722;2023-07-13T12:22:11;2.20;;;1.50;;
78903;SDS011;68291;49.602;8.722;2023-07-13T12:24:54;3.20;;;1.57;;
78903;SDS011;68291;49.602;8.722;2023-07-13T12:30:57;7.13;;;1.60;;
78903;SDS011;68291;49.602;8.722;2023-07-13T12:33:56;3.67;;;1.90;;
78903;SDS011;68291;49.602;8.722;2023-07-13T12:36:52;2.83;;;1.70;;
78903;SDS011;68291;49.602;8.722;2023-07-13T12:39:35;3.53;;;1.47;;
78903;SDS011;68291;49.602;8.722;2023-07-13T12:42:24;4.37;;;1.60;;
78903;SDS011;68291;49.602;8.722;2023-07-13T12:45:02;4.80;;;1.70;;
78903;SDS011;68291;49.602;8.722;2023-07-13T12:47:49;1.63;;;1.40;;
78903;SDS011;68291;49.602;8.722;2023-07-13T12:50:33;3.47;;;1.70;;
78903;SDS011;68291;49.602;8.722;2023-07-13T12:53:13;3.30;;;1.60;;
78903;SDS011;68291;49.602;8.722;2023-07-13T12:55:47;1.97;;;1.50;;
78903;SDS011;68291;49.602;8.722;2023-07-13T12:58:56;2.90;;;1.40;;
78903;SDS011;68291;49.602;8.722;2023-07-13T13:01:50;2.93;;;1.50;;
78903;SDS011;68291;49.602;8.722;2023-07-13T13:04:23;2.90;;;1.70;;
78903;SDS011;68291;49.602;8.722;2023-07-13T13:07:08;2.87;;;1.77;;
78903;SDS011;68291;49.602;8.722;2023-07-13T13:10:04;3.30;;;1.47;;
78903;SDS011;68291;49.602;8.722;2023-07-13T13:12:59;2.27;;;1.50;;
78903;SDS011;68291;49.602;8.722;2023-07-13T13:15:56;2.97;;;1.70;;
78903;SDS011;68291;49.602;8.722;2023-07-13T13:18:40;2.63;;;1.67;;
78903;SDS011;68291;49.602;8.722;2023-07-13T13:21:20;2.50;;;1.67;;
78903;SDS011;68291;49.602;8.722;2023-07-13T13:24:08;2.50;;;1.43;;
78903;SDS011;68291;49.602;8.722;2023-07-13T13:26:57;1.83;;;1.47;;
78903;SDS011;68291;49.602;8.722;2023-07-13T13:29:48;2.60;;;1.80;;
78903;SDS011;68291;49.602;8.722;2023-07-13T13:32:44;2.87;;;1.63;;
78903;SDS011;68291;49.602;8.722;2023-07-13T13:35:40;4.17;;;1.50;;
78903;SDS011;68291;49.602;8.722;2023-07-13T13:38:26;2.67;;;1.70;;
78903;SDS011;68291;49.602;8.722;2023-07-13T13:41:13;3.10;;;1.70;;
78903;SDS011;68291;49.602;8.722;2023-07-13T13:43:58;4.30;;;1.50;;
78903;SDS011;68291;49.602;8.722;2023-07-13T13:46:40;2.40;;;1.60;;
78903;SDS011;68291;49.602;8.722;2023-07-13T13:49:21;2.70;;;1.80;;
78903;SDS011;68291;49.602;8.722;2023-07-13T13:51:56;2.50;;;1.50;;
78903;SDS011;68291;49.602;8.722;2023-07-13T13:54:27;3.47;;;1.50;;
78903;SDS011;68291;49.602;8.722;2023-07-13T13:57:02;2.10;;;1.40;;
78903;SDS011;68291;49.602;8.722;2023-07-13T13:59:49;3.70;;;1.60;;
78903;SDS011;68291;49.602;8.722;2023-07-13T14:02:47;2.57;;;1.73;;
78903;SDS011;68291;49.602;8.722;2023-07-13T14:05:26;2.93;;;1.43;;
78903;SDS011;68291;49.602;8.722;2023-07-13T14:11:05;3.53;;;1.60;;
78903;SDS011;68291;49.602;8.722;2023-07-13T14:13:48;2.20;;;1.40;;
78903;SDS011;68291;49.602;8.722;2023-07-13T14:16:42;3.23;;;1.50;;
78903;SDS011;68291;49.602;8.722;2023-07-13T14:19:31;3.97;;;2.07;;
78903;SDS011;68291;49.602;8.722;2023-07-13T14:22:11;3.30;;;1.80;;
78903;SDS011;68291;49.602;8.722;2023-07-13T14:24:44;1.77;;;1.30;;
78903;SDS011;68291;49.602;8.722;2023-07-13T14:27:14;3.70;;;1.60;;
78903;SDS011;68291;49.602;8.722;2023-07-13T14:29:58;1.73;;;1.40;;
78903;SDS011;68291;49.602;8.722;2023-07-13T14:32:33;2.37;;;1.60;;
78903;SDS011;68291;49.602;8.722;2023-07-13T14:35:08;3.23;;;1.60;;
78903;SDS011;68291;49.602;8.722;2023-07-13T14:37:41;2.03;;;1.40;;
78903;SDS011;68291;49.602;8.722;2023-07-13T14:40:29;6.70;;;1.50;;
78903;SDS011;68291;49.602;8.722;2023-07-13T14:43:08;3.43;;;1.33;;
78903;SDS011;68291;49.602;8.722;2023-07-13T14:45:42;3.67;;;1.50;;
78903;SDS011;68291;49.602;8.722;2023-07-13T14:48:47;2.43;;;1.50;;
78903;SDS011;68291;49.602;8.722;2023-07-13T14:51:41;5.40;;;1.53;;
78903;SDS011;68291;49.602;8.722;2023-07-13T14:54:34;2.97;;;1.63;;
78903;SDS011;68291;49.602;8.722;2023-07-13T15:00:20;3.90;;;1.50;;
78903;SDS011;68291;49.602;8.722;2023-07-13T15:03:11;2.70;;;1.20;;
78903;SDS011;68291;49.602;8.722;2023-07-13T15:05:59;3.60;;;1.50;;
78903;SDS011;68291;49.602;8.722;2023-07-13T15:08:35;3.07;;;1.60;;
78903;SDS011;68291;49.602;8.722;2023-07-13T15:11:17;2.83;;;1.63;;
78903;SDS011;68291;49.602;8.722;2023-07-13T15:14:01;3.53;;;1.60;;
78903;SDS011;68291;49.602;8.722;2023-07-13T15:16:37;2.17;;;1.50;;
78903;SDS011;68291;49.602;8.722;2023-07-13T15:19:13;5.03;;;1.60;;
78903;SDS011;68291;49.602;8.722;2023-07-13T15:22:02;6.00;;;1.20;;
78903;SDS011;68291;49.602;8.722;2023-07-13T15:24:41;2.67;;;1.63;;
78903;SDS011;68291;49.602;8.722;2023-07-13T15:27:20;2.67;;;1.50;;
78903;SDS011;68291;49.602;8.722;2023-07-13T15:30:08;3.70;;;1.47;;
78903;SDS011;68291;49.602;8.722;2023-07-13T15:32:42;3.60;;;1.80;;
78903;SDS011;68291;49.602;8.722;2023-07-13T15:35:24;3.70;;;1.73;;
78903;SDS011;68291;49.602;8.722;2023-07-13T15:38:16;3.30;;;1.73;;
78903;SDS011;68291;49.602;8.722;2023-07-13T15:40:51;3.57;;;1.63;;
78903;SDS011;68291;49.602;8.722;2023-07-13T15:43:32;2.10;;;1.40;;
78903;SDS011;68291;49.602;8.722;2023-07-13T15:46:22;1.97;;;1.60;;
78903;SDS011;68291;49.602;8.722;2023-07-13T15:48:57;3.77;;;1.60;;
78903;SDS011;68291;49.602;8.722;2023-07-13T15:51:51;2.97;;;1.57;;
78903;SDS011;68291;49.602;8.722;2023-07-13T15:54:47;2.20;;;1.53;;
78903;SDS011;68291;49.602;8.722;2023-07-13T15:57:19;3.70;;;1.80;;
78903;SDS011;68291;49.602;8.722;2023-07-13T16:00:13;3.73;;;1.50;;
78903;SDS011;68291;49.602;8.722;2023-07-13T16:06:15;3.13;;;1.50;;
78903;SDS011;68291;49.602;8.722;2023-07-13T16:08:56;3.50;;;1.40;;
78903;SDS011;68291;49.602;8.722;2023-07-13T16:11:37;1.73;;;1.37;;
78903;SDS011;68291;49.602;8.722;2023-07-13T16:14:10;3.40;;;1.70;;
78903;SDS011;68291;49.602;8.722;2023-07-13T16:16:52;5.10;;;1.63;;
78903;SDS011;68291;49.602;8.722;2023-07-13T16:19:29;5.00;;;1.67;;
78903;SDS011;68291;49.602;8.722;2023-07-13T16:22:19;2.83;;;1.60;;
78903;SDS011;68291;49.602;8.722;2023-07-13T16:24:51;2.28;;;1.40;;
78903;SDS011;68291;49.602;8.722;2023-07-13T16:27:36;2.72;;;1.48;;
78903;SDS011;68291;49.602;8.722;2023-07-13T16:30:22;3.33;;;1.40;;
78903;SDS011;68291;49.602;8.722;2023-07-13T16:33:02;2.10;;;1.13;;
78903;SDS011;68291;49.602;8.722;2023-07-13T16:35:44;1.75;;;1.40;;
78903;SDS011;68291;49.602;8.722;2023-07-13T16:38:33;1.85;;;1.42;;
78903;SDS011;68291;49.602;8.722;2023-07-13T16:41:05;2.40;;;1.40;;
78903;SDS011;68291;49.602;8.722;2023-07-13T16:43:41;2.60;;;1.40;;
78903;SDS011;68291;49.602;8.722;2023-07-13T16:46:22;2.87;;;1.53;;
78903;SDS011;68291;49.602;8.722;2023-07-13T16:49:04;2.13;;;1.50;;
78903;SDS011;68291;49.602;8.722;2023-07-13T16:55:04;3.10;;;1.50;;
78903;SDS011;68291;49.602;8.722;2023-07-13T16:57:55;4.83;;;1.57;;
78903;SDS011;68291;49.602;8.722;2023-07-13T17:00:31;1.23;;;1.13;;
78903;SDS011;68291;49.602;8.722;2023-07-13T17:03:09;2.70;;;1.40;;
78903;SDS011;68291;49.602;8.722;2023-07-13T17:05:58;1.83;;;1.40;;
78903;SDS011;68291;49.602;8.722;2023-07-13T17:08:45;3.43;;;1.37;;
78903;SDS011;68291;49.602;8.722;2023-07-13T17:11:21;2.20;;;1.43;;
78903;SDS011;68291;49.602;8.722;2023-07-13T17:14:18;2.67;;;1.33;;
78903;SDS011;68291;49.602;8.722;2023-07-13T17:17:05;2.90;;;1.40;;
78903;SDS011;68291;49.602;8.722;2023-07-13T17:19:53;2.93;;;1.53;;
78903;SDS011;68291;49.602;8.722;2023-07-13T17:22:31;4.63;;;1.53;;